createdAt,value
2023-02-14T00:01:23.161Z,26.90
2023-02-14T00:03:50.748Z,27.88
2023-02-14T00:06:18.473Z,26.08
2023-02-14T00:08:46.115Z,27.65
2023-02-14T00:11:15.046Z,26.10
2023-02-14T00:14:05.390Z,26.00
2023-02-14T00:16:33.226Z,25.65
2023-02-14T00:19:03.500Z,24.33
2023-02-14T00:21:36.354Z,25.38
2023-02-14T00:24:06.638Z,26.00
2023-02-14T00:26:34.416Z,25.77
2023-02-14T00:29:02.064Z,29.75
2023-02-14T00:31:29.881Z,29.13
2023-02-14T00:33:57.581Z,28.27
2023-02-14T00:36:25.572Z,29.90
2023-02-14T00:38:53.434Z,26.92
2023-02-14T00:41:21.448Z,28.92
2023-02-14T00:43:50.749Z,28.23
2023-02-14T00:46:19.241Z,29.17
2023-02-14T00:48:46.997Z,28.55
2023-02-14T00:51:15.323Z,27.42
2023-02-14T00:53:44.462Z,28.35
2023-02-14T00:56:12.865Z,28.33
2023-02-14T00:58:41.038Z,26.60
2023-02-14T01:01:09.477Z,28.15
2023-02-14T01:03:37.378Z,29.60
2023-02-14T01:06:06.597Z,28.10
2023-02-14T01:08:34.403Z,27.55
2023-02-14T01:11:08.797Z,25.70
2023-02-14T01:13:36.505Z,26.17
2023-02-14T01:16:09.701Z,27.15
2023-02-14T01:18:38.142Z,27.83
2023-02-14T01:21:19.030Z,24.60
2023-02-14T01:23:48.400Z,27.00
2023-02-14T01:26:16.854Z,26.58
2023-02-14T01:28:45.209Z,25.55
2023-02-14T01:31:15.907Z,27.17
2023-02-14T01:33:45.340Z,25.45
2023-02-14T01:36:22.885Z,23.85
2023-02-14T01:38:55.756Z,24.88
2023-02-14T01:41:25.533Z,26.83
2023-02-14T01:44:26.627Z,25.90
2023-02-14T01:46:55.118Z,27.17
2023-02-14T01:49:33.524Z,25.15
2023-02-14T01:52:10.627Z,26.50
2023-02-14T01:54:42.731Z,25.67
2023-02-14T01:57:14.009Z,26.88
2023-02-14T01:59:48.998Z,24.40
2023-02-14T02:02:23.530Z,24.58
2023-02-14T02:04:55.649Z,25.70
2023-02-14T02:07:27.401Z,26.55
2023-02-14T02:10:03.025Z,25.20
2023-02-14T02:12:31.125Z,28.45
2023-02-14T02:15:00.142Z,27.45
2023-02-14T02:18:17.067Z,29.58
2023-02-14T02:21:18.606Z,27.58
2023-02-14T02:23:58.073Z,27.17
2023-02-14T02:26:43.391Z,26.77
2023-02-14T02:29:57.865Z,29.48
2023-02-14T02:32:56.485Z,30.20
2023-02-14T02:35:35.854Z,33.22
2023-02-14T02:38:36.265Z,30.42
2023-02-14T02:41:12.716Z,30.02
2023-02-14T02:44:17.910Z,29.42
2023-02-14T02:47:01.356Z,28.08
2023-02-14T02:50:10.117Z,26.70
2023-02-14T02:52:59.445Z,27.83
2023-02-14T02:56:01.259Z,26.63
2023-02-14T02:58:40.238Z,28.05
2023-02-14T03:01:15.344Z,29.75
2023-02-14T03:04:07.183Z,31.05
2023-02-14T03:06:36.390Z,27.13
2023-02-14T03:09:34.821Z,27.52
2023-02-14T03:12:33.327Z,30.48
2023-02-14T03:15:30.824Z,31.20
2023-02-14T03:17:58.360Z,30.23
2023-02-14T03:20:55.138Z,28.30
2023-02-14T03:24:00.214Z,30.88
2023-02-14T03:26:39.707Z,32.20
2023-02-14T03:29:26.105Z,33.40
2023-02-14T03:32:28.382Z,33.95
2023-02-14T03:35:20.460Z,32.90
2023-02-14T03:37:57.809Z,33.35
2023-02-14T03:40:49.408Z,34.15
2023-02-14T03:43:47.259Z,35.20
2023-02-14T03:46:19.776Z,36.08
2023-02-14T03:48:50.411Z,33.58
2023-02-14T03:51:19.699Z,34.97
2023-02-14T03:53:51.751Z,36.25
2023-02-14T03:57:12.730Z,32.92
2023-02-14T03:59:41.379Z,29.52
2023-02-14T04:02:22.012Z,33.70
2023-02-14T04:04:51.686Z,33.97
2023-02-14T04:07:21.927Z,34.60
2023-02-14T04:12:26.577Z,29.92
2023-02-14T04:15:00.011Z,33.00
2023-02-14T04:17:45.879Z,30.38
2023-02-14T04:20:13.534Z,31.45
2023-02-14T04:22:41.045Z,31.80
2023-02-14T04:25:08.640Z,32.17
2023-02-14T04:27:36.125Z,31.70
2023-02-14T04:30:03.993Z,33.63
2023-02-14T04:32:31.586Z,33.05
2023-02-14T04:34:59.248Z,30.98
2023-02-14T04:37:26.995Z,31.90
2023-02-14T04:39:54.559Z,34.03
2023-02-14T04:42:22.067Z,32.70
2023-02-14T04:44:49.696Z,34.85
2023-02-14T04:47:17.304Z,31.77
2023-02-14T04:49:45.058Z,35.38
2023-02-14T04:52:13.193Z,32.38
2023-02-14T04:54:40.736Z,32.22
2023-02-14T04:57:08.280Z,34.38
2023-02-14T04:59:35.867Z,34.55
2023-02-14T05:02:03.464Z,34.83
2023-02-14T05:04:31.090Z,32.97
2023-02-14T05:06:58.582Z,33.97
2023-02-14T05:09:26.250Z,33.88
2023-02-14T05:11:53.810Z,30.95
2023-02-14T05:14:21.531Z,33.92
2023-02-14T05:16:49.036Z,33.00
2023-02-14T05:19:16.681Z,33.90
2023-02-14T05:21:44.217Z,34.00
2023-02-14T05:24:11.748Z,34.72
2023-02-14T05:26:39.313Z,36.45
2023-02-14T05:29:07.381Z,30.40
2023-02-14T05:31:35.140Z,35.08
2023-02-14T05:34:02.913Z,34.53
2023-02-14T05:36:30.916Z,34.42
2023-02-14T05:38:58.547Z,36.30
2023-02-14T05:41:26.053Z,35.47
2023-02-14T05:43:53.646Z,35.63
2023-02-14T05:46:21.246Z,34.10
2023-02-14T05:48:48.879Z,35.92
2023-02-14T05:51:16.534Z,32.03
2023-02-14T05:53:44.121Z,34.72
2023-02-14T05:56:11.846Z,32.75
2023-02-14T05:58:39.422Z,35.05
2023-02-14T06:01:07.043Z,33.40
2023-02-14T06:03:35.754Z,33.10
2023-02-14T06:06:03.434Z,33.83
2023-02-14T06:08:31.248Z,36.45
2023-02-14T06:10:59.388Z,33.38
2023-02-14T06:13:27.131Z,34.22
2023-02-14T06:15:54.718Z,36.72
2023-02-14T06:18:22.457Z,35.08
2023-02-14T06:20:49.954Z,34.47
2023-02-14T06:23:17.518Z,36.63
2023-02-14T06:25:45.031Z,35.55
2023-02-14T06:28:12.614Z,36.95
2023-02-14T06:30:40.298Z,34.50
2023-02-14T06:33:08.150Z,37.65
2023-02-14T06:35:35.748Z,35.55
2023-02-14T06:38:03.356Z,34.80
2023-02-14T06:40:30.876Z,37.72
2023-02-14T06:42:58.447Z,42.88
2023-02-14T06:45:26.057Z,36.72
2023-02-14T06:47:53.595Z,34.70
2023-02-14T06:50:21.157Z,36.03
2023-02-14T06:52:48.715Z,32.85
2023-02-14T06:55:16.566Z,37.00
2023-02-14T06:57:45.757Z,35.40
2023-02-14T07:00:14.890Z,33.15
2023-02-14T07:02:42.698Z,32.63
2023-02-14T07:05:10.428Z,35.90
2023-02-14T07:07:38.093Z,33.58
2023-02-14T07:10:06.234Z,34.58
2023-02-14T07:12:35.028Z,36.47
2023-02-14T07:15:02.561Z,32.17
2023-02-14T07:17:30.148Z,36.13
2023-02-14T07:19:57.715Z,31.85
2023-02-14T07:22:25.283Z,38.33
2023-02-14T07:24:52.826Z,39.13
2023-02-14T07:27:20.396Z,34.30
2023-02-14T07:29:48.010Z,35.13
2023-02-14T07:32:15.770Z,35.15
2023-02-14T07:34:43.562Z,36.55
2023-02-14T07:37:11.246Z,34.88
2023-02-14T07:39:38.839Z,35.70
2023-02-14T07:42:08.205Z,36.75
2023-02-14T07:44:36.174Z,34.75
2023-02-14T07:47:03.779Z,36.38
2023-02-14T07:49:31.436Z,38.22
2023-02-14T07:51:59.186Z,38.47
2023-02-14T07:54:26.764Z,39.08
2023-02-14T07:56:54.410Z,35.15
2023-02-14T07:59:24.407Z,38.05
2023-02-14T08:01:53.288Z,38.97
2023-02-14T08:04:21.457Z,38.53
2023-02-14T08:06:49.080Z,38.63
2023-02-14T08:09:24.683Z,38.42
2023-02-14T08:12:16.032Z,36.97
2023-02-14T08:14:44.437Z,36.17
2023-02-14T08:17:13.852Z,35.35
2023-02-14T08:19:41.483Z,33.08
2023-02-14T08:22:09.565Z,39.42
2023-02-14T08:24:37.354Z,34.13
2023-02-14T08:27:04.977Z,39.03
2023-02-14T08:29:32.511Z,31.60
2023-02-14T08:32:00.570Z,31.77
2023-02-14T08:34:28.387Z,32.63
2023-02-14T08:36:55.977Z,33.17
2023-02-14T08:39:23.693Z,28.02
2023-02-14T08:41:51.695Z,30.88
2023-02-14T08:44:19.263Z,31.20
2023-02-14T08:46:46.877Z,30.58
2023-02-14T08:49:14.579Z,29.45
2023-02-14T08:51:42.428Z,33.70
2023-02-14T08:54:09.982Z,33.25
2023-02-14T08:56:38.501Z,31.25
2023-02-14T08:59:06.242Z,25.95
2023-02-14T09:01:34.070Z,27.23
2023-02-14T09:04:02.429Z,30.33
2023-02-14T09:06:30.453Z,33.67
2023-02-14T09:08:58.017Z,28.48
2023-02-14T09:11:25.767Z,31.90
2023-02-14T09:13:53.904Z,29.83
2023-02-14T09:16:22.722Z,27.10
2023-02-14T09:18:51.376Z,30.00
2023-02-14T09:21:21.828Z,28.80
2023-02-14T09:23:49.732Z,26.48
2023-02-14T09:26:18.159Z,25.80
2023-02-14T09:28:46.444Z,30.52
2023-02-14T09:31:18.737Z,27.52
2023-02-14T09:33:47.883Z,28.65
2023-02-14T09:36:15.763Z,26.47
2023-02-14T09:38:43.369Z,27.58
2023-02-14T09:41:25.507Z,31.58
2023-02-14T09:44:04.017Z,31.42
2023-02-14T09:46:41.653Z,31.58
2023-02-14T09:49:15.490Z,28.60
2023-02-14T09:51:51.348Z,29.20
2023-02-14T09:54:27.527Z,29.75
2023-02-14T09:56:59.256Z,29.58
2023-02-14T09:59:43.963Z,32.90
2023-02-14T10:02:15.558Z,33.08
2023-02-14T10:05:06.597Z,30.70
2023-02-14T10:07:43.634Z,38.42
2023-02-14T10:10:25.339Z,32.75
2023-02-14T10:13:06.601Z,34.92
2023-02-14T10:15:45.140Z,34.38
2023-02-14T10:18:15.537Z,35.42
2023-02-14T10:20:46.948Z,34.28
2023-02-14T10:23:29.146Z,29.85
2023-02-14T10:26:02.275Z,33.90
2023-02-14T10:28:37.412Z,34.90
2023-02-14T10:31:26.167Z,30.52
2023-02-14T10:34:04.702Z,30.98
2023-02-14T10:37:13.810Z,32.10
2023-02-14T10:40:25.989Z,31.75
2023-02-14T10:43:01.216Z,32.35
2023-02-14T10:46:13.771Z,33.88
2023-02-14T10:49:00.316Z,34.65
2023-02-14T10:51:34.070Z,28.63
2023-02-14T10:54:20.227Z,31.02
2023-02-14T10:57:00.478Z,31.80
2023-02-14T10:59:54.057Z,33.05
2023-02-14T11:02:25.718Z,32.85
2023-02-14T11:04:54.904Z,33.33
2023-02-14T11:07:22.948Z,32.85
2023-02-14T11:09:50.558Z,32.15
2023-02-14T11:12:39.534Z,32.55
2023-02-14T11:15:21.815Z,29.80
2023-02-14T11:17:49.590Z,30.23
2023-02-14T11:20:27.905Z,33.15
2023-02-14T11:22:55.768Z,31.85
2023-02-14T11:25:25.212Z,31.80
2023-02-14T11:28:05.143Z,33.75
2023-02-14T11:30:41.071Z,32.20
2023-02-14T11:33:33.917Z,31.40
2023-02-14T11:36:03.761Z,32.38
2023-02-14T11:41:05.194Z,36.60
2023-02-14T11:43:43.760Z,36.85
2023-02-14T11:46:14.899Z,37.00
2023-02-14T11:48:57.718Z,33.17
2023-02-14T11:51:29.941Z,40.78
2023-02-14T11:54:03.257Z,34.10
2023-02-14T11:56:52.111Z,31.05
2023-02-14T11:59:31.320Z,38.67
2023-02-14T12:02:03.027Z,47.80
2023-02-14T12:04:45.698Z,34.45
2023-02-14T12:07:25.273Z,30.52
2023-02-14T12:10:10.708Z,31.90
2023-02-14T12:12:48.147Z,29.27
2023-02-14T12:15:29.389Z,27.52
2023-02-14T12:18:05.162Z,27.88
2023-02-14T12:20:38.534Z,28.15
2023-02-14T12:23:16.881Z,30.80
2023-02-14T12:25:54.420Z,31.15
2023-02-14T12:28:31.512Z,27.48
2023-02-14T12:30:59.581Z,27.08
2023-02-14T12:33:27.421Z,27.77
2023-02-14T12:36:26.800Z,25.98
2023-02-14T12:39:31.643Z,25.85
2023-02-14T12:42:02.978Z,25.40
2023-02-14T12:44:43.556Z,25.52
2023-02-14T12:47:42.823Z,24.00
2023-02-14T12:50:25.437Z,26.23
2023-02-14T12:53:14.197Z,24.55
2023-02-14T12:55:50.534Z,25.35
2023-02-14T12:58:36.028Z,26.42
2023-02-14T13:01:28.435Z,25.85
2023-02-14T13:04:19.840Z,26.20
2023-02-14T13:07:05.662Z,27.30
2023-02-14T13:09:56.580Z,26.20
2023-02-14T13:12:51.736Z,25.80
2023-02-14T13:15:35.668Z,25.08
2023-02-14T13:18:25.869Z,27.27
2023-02-14T13:21:00.244Z,26.88
2023-02-14T13:23:35.622Z,28.27
2023-02-14T13:26:09.979Z,28.13
2023-02-14T13:28:44.377Z,28.05
2023-02-14T13:31:12.322Z,27.77
2023-02-14T13:33:45.217Z,26.52
2023-02-14T13:36:14.503Z,25.92
2023-02-14T13:38:52.042Z,26.08
2023-02-14T13:41:21.088Z,26.63
2023-02-14T13:43:56.407Z,25.88
2023-02-14T13:46:33.001Z,25.58
2023-02-14T13:49:32.898Z,26.92
2023-02-14T13:52:06.328Z,25.20
2023-02-14T13:54:39.103Z,25.23
2023-02-14T13:57:28.457Z,24.38
2023-02-14T14:00:18.012Z,26.52
2023-02-14T14:02:50.070Z,24.33
2023-02-14T14:05:32.760Z,25.20
2023-02-14T14:08:22.511Z,23.95
2023-02-14T14:10:54.289Z,22.42
2023-02-14T14:13:40.662Z,24.73
2023-02-14T14:16:28.012Z,23.90
2023-02-14T14:19:01.728Z,24.08
2023-02-14T14:21:32.487Z,21.58
2023-02-14T14:24:26.140Z,24.42
2023-02-14T14:27:05.327Z,23.30
2023-02-14T14:29:38.378Z,21.80
2023-02-14T14:32:10.140Z,22.27
2023-02-14T14:34:38.616Z,24.02
2023-02-14T14:37:17.154Z,22.98
2023-02-14T14:40:00.641Z,24.13
2023-02-14T14:42:32.298Z,22.80
2023-02-14T14:45:04.178Z,24.27
2023-02-14T14:47:42.373Z,22.83
2023-02-14T14:50:18.870Z,22.52
2023-02-14T14:52:58.730Z,22.70
2023-02-14T14:55:27.906Z,24.73
2023-02-14T14:58:09.062Z,23.30
2023-02-14T15:00:38.856Z,23.15
2023-02-14T15:03:12.456Z,24.42
2023-02-14T15:05:48.456Z,23.05
2023-02-14T15:08:25.061Z,23.27
2023-02-14T15:11:03.423Z,23.48
2023-02-14T15:13:50.614Z,23.70
2023-02-14T15:16:25.107Z,21.55
2023-02-14T15:19:00.377Z,21.55
2023-02-14T15:21:28.431Z,21.63
2023-02-14T15:23:56.292Z,22.90
2023-02-14T15:26:31.619Z,21.10
2023-02-14T15:29:06.943Z,23.10
2023-02-14T15:31:41.127Z,23.20
2023-02-14T15:34:11.194Z,24.13
2023-02-14T15:36:49.125Z,22.90
2023-02-14T15:39:18.641Z,22.20
2023-02-14T15:41:46.729Z,24.08
2023-02-14T15:44:23.553Z,24.00
2023-02-14T15:46:57.525Z,22.63
2023-02-14T15:49:32.499Z,22.35
2023-02-14T15:52:02.961Z,24.48
2023-02-14T15:54:36.723Z,24.33
2023-02-14T15:57:06.537Z,24.23
2023-02-14T15:59:36.829Z,24.83
2023-02-14T16:02:28.025Z,23.73
2023-02-14T16:05:03.635Z,24.02
2023-02-14T16:07:31.387Z,24.58
2023-02-14T16:10:28.747Z,25.45
2023-02-14T16:13:18.702Z,22.88
2023-02-14T16:18:41.340Z,23.02
2023-02-14T16:21:27.719Z,23.88
2023-02-14T16:24:07.442Z,22.15
2023-02-14T16:26:43.009Z,24.83
2023-02-14T16:29:19.503Z,25.67
2023-02-14T16:34:47.440Z,24.10
2023-02-14T16:39:52.940Z,27.05
2023-02-14T16:42:20.841Z,25.88
2023-02-14T16:44:48.659Z,26.08
2023-02-14T16:47:18.248Z,26.38
2023-02-14T16:49:46.120Z,26.73
2023-02-14T16:52:20.725Z,24.73
2023-02-14T16:54:50.052Z,25.73
2023-02-14T16:57:41.013Z,26.60
2023-02-14T17:00:10.229Z,25.63
2023-02-14T17:02:38.143Z,28.77
2023-02-14T17:05:06.146Z,28.35
2023-02-14T17:07:33.918Z,28.90
2023-02-14T17:10:09.659Z,26.90
2023-02-14T17:12:40.549Z,27.17
2023-02-14T17:15:16.880Z,25.70
2023-02-14T17:17:47.187Z,26.48
2023-02-14T17:20:16.011Z,25.70
2023-02-14T17:22:44.703Z,27.23
2023-02-14T17:25:12.329Z,26.48
2023-02-14T17:27:44.033Z,23.50
2023-02-14T17:30:12.781Z,23.38
2023-02-14T17:32:40.840Z,23.98
2023-02-14T17:35:09.084Z,25.25
2023-02-14T17:37:37.378Z,26.23
2023-02-14T17:40:05.979Z,30.27
2023-02-14T17:42:34.488Z,28.02
2023-02-14T17:45:02.438Z,28.58
2023-02-14T17:47:30.054Z,28.23
2023-02-14T17:49:58.214Z,30.85
2023-02-14T17:52:28.360Z,29.95
2023-02-14T17:54:56.521Z,30.13
2023-02-14T17:57:24.360Z,28.23
2023-02-14T17:59:52.060Z,29.75
2023-02-14T18:02:22.851Z,28.05
2023-02-14T18:04:50.756Z,28.25
2023-02-14T18:07:18.381Z,28.08
2023-02-14T18:09:46.149Z,27.80
2023-02-14T18:12:15.158Z,28.13
2023-02-14T18:14:43.331Z,27.87
2023-02-14T18:17:15.656Z,30.02
2023-02-14T18:19:43.403Z,30.17
2023-02-14T18:22:10.922Z,34.40
2023-02-14T18:24:39.185Z,40.28
2023-02-14T18:27:06.870Z,47.50
2023-02-14T18:29:35.988Z,34.42
2023-02-14T18:32:04.892Z,31.17
2023-02-14T18:34:35.545Z,32.20
2023-02-14T18:37:04.539Z,32.38
2023-02-14T18:39:32.802Z,32.40
2023-02-14T18:42:01.201Z,35.05
2023-02-14T18:44:29.301Z,33.97
2023-02-14T18:46:56.927Z,32.67
2023-02-14T18:49:24.635Z,33.30
2023-02-14T18:51:52.185Z,31.98
2023-02-14T18:54:19.738Z,33.80
2023-02-14T18:56:47.847Z,32.85
2023-02-14T18:59:16.662Z,31.88
2023-02-14T19:01:45.828Z,32.88
2023-02-14T19:04:13.664Z,32.58
2023-02-14T19:06:42.113Z,32.70
2023-02-14T19:09:12.068Z,32.45
2023-02-14T19:14:10.318Z,31.63
2023-02-14T19:16:44.092Z,33.58
2023-02-14T19:19:11.919Z,29.77
2023-02-14T19:21:39.470Z,32.25
2023-02-14T19:24:07.823Z,32.65
2023-02-14T19:26:40.779Z,30.00
2023-02-14T19:29:20.302Z,30.85
2023-02-14T19:31:53.088Z,30.50
2023-02-14T19:34:28.897Z,33.00
2023-02-14T19:37:00.388Z,31.65
2023-02-14T19:39:31.727Z,29.73
2023-02-14T19:42:00.566Z,31.23
2023-02-14T19:44:29.306Z,30.50
2023-02-14T19:47:00.027Z,32.58
2023-02-14T19:49:28.653Z,32.83
2023-02-14T19:51:56.867Z,33.70
2023-02-14T19:54:25.717Z,34.53
2023-02-14T19:56:55.489Z,34.83
2023-02-14T19:59:23.359Z,34.67
2023-02-14T20:01:53.343Z,34.30
2023-02-14T20:04:23.365Z,33.55
2023-02-14T20:09:21.771Z,29.08
2023-02-14T20:11:52.356Z,30.73
2023-02-14T20:14:35.968Z,31.63
2023-02-14T20:17:08.446Z,31.83
2023-02-14T20:19:37.186Z,33.55
2023-02-14T20:22:05.073Z,32.00
2023-02-14T20:24:32.688Z,33.25
2023-02-14T20:27:03.050Z,32.47
2023-02-14T20:29:30.797Z,33.42
2023-02-14T20:32:01.482Z,33.40
2023-02-14T20:34:29.505Z,33.28
2023-02-14T20:36:59.252Z,34.17
2023-02-14T20:41:56.709Z,35.03
2023-02-14T20:44:24.612Z,35.03
2023-02-14T20:46:54.384Z,33.78
2023-02-14T20:49:24.090Z,35.22
2023-02-14T20:51:52.490Z,34.05
2023-02-14T20:54:22.069Z,34.25
2023-02-14T20:56:50.896Z,33.33
2023-02-14T20:59:27.322Z,35.28
2023-02-14T21:01:59.279Z,35.13
2023-02-14T21:04:27.617Z,36.88
2023-02-14T21:06:57.620Z,34.15
2023-02-14T21:09:28.352Z,34.90
2023-02-14T21:11:59.430Z,32.15
2023-02-14T21:14:27.375Z,31.40
2023-02-14T21:16:54.960Z,31.90
2023-02-14T21:19:22.595Z,31.25
2023-02-14T21:21:50.595Z,30.73
2023-02-14T21:24:18.283Z,32.35
2023-02-14T21:26:46.085Z,31.83
2023-02-14T21:29:13.867Z,28.98
2023-02-14T21:31:42.488Z,30.02
2023-02-14T21:34:11.023Z,30.15
2023-02-14T21:36:38.609Z,30.88
2023-02-14T21:39:07.265Z,30.63
2023-02-14T21:41:36.505Z,30.27
2023-02-14T21:44:05.293Z,32.58
2023-02-14T21:46:36.870Z,35.08
2023-02-14T21:49:24.143Z,35.00
2023-02-14T21:51:52.065Z,33.72
2023-02-14T21:54:19.598Z,32.40
2023-02-14T21:56:47.679Z,32.85
2023-02-14T21:59:15.270Z,32.00
2023-02-14T22:01:43.429Z,32.28
2023-02-14T22:04:12.913Z,33.70
2023-02-14T22:06:41.936Z,32.78
2023-02-14T22:09:12.320Z,33.00
2023-02-14T22:11:40.508Z,33.67
2023-02-14T22:14:08.382Z,33.17
2023-02-14T22:16:36.965Z,34.75
2023-02-14T22:19:07.423Z,34.72
2023-02-14T22:21:35.279Z,35.03
2023-02-14T22:24:02.981Z,35.45
2023-02-14T22:26:40.782Z,35.75
2023-02-14T22:29:11.395Z,36.53
2023-02-14T22:31:41.787Z,34.60
2023-02-14T22:34:11.638Z,34.90
2023-02-14T22:36:39.485Z,33.85
2023-02-14T22:39:07.641Z,35.38
2023-02-14T22:41:37.791Z,33.85
2023-02-14T22:44:06.402Z,35.13
2023-02-14T22:46:36.803Z,34.13
2023-02-14T22:49:06.111Z,33.17
2023-02-14T22:51:39.146Z,33.50
2023-02-14T22:54:10.300Z,33.70
2023-02-14T22:56:48.367Z,33.50
2023-02-14T22:59:23.176Z,35.67
2023-02-14T23:01:52.868Z,33.80
2023-02-14T23:04:22.094Z,34.30
2023-02-14T23:06:51.708Z,34.53
2023-02-14T23:09:20.122Z,34.67
2023-02-14T23:11:49.877Z,33.33
2023-02-14T23:14:37.250Z,33.72
2023-02-14T23:17:24.356Z,32.83
2023-02-14T23:20:10.710Z,30.02
2023-02-14T23:22:40.203Z,32.83
2023-02-14T23:25:10.900Z,32.53
2023-02-14T23:27:44.616Z,34.40
2023-02-14T23:30:15.806Z,33.40
2023-02-14T23:32:43.610Z,33.85
2023-02-14T23:35:11.251Z,32.38
2023-02-14T23:37:39.112Z,34.95
2023-02-14T23:40:07.630Z,33.33
2023-02-14T23:42:35.170Z,33.15
2023-02-14T23:45:21.311Z,33.88
2023-02-14T23:47:49.035Z,32.58
2023-02-14T23:50:16.732Z,32.58
2023-02-14T23:52:44.712Z,32.15
2023-02-14T23:55:12.736Z,33.13
2023-02-14T23:57:42.880Z,35.17
